createdAt,value
2022-08-18T00:00:45.113Z,71.6
2022-08-18T00:03:57.275Z,71.6
2022-08-18T00:07:09.413Z,71.9
2022-08-18T00:10:21.559Z,71.2
2022-08-18T00:13:33.722Z,71.3
2022-08-18T00:16:45.868Z,72.2
2022-08-18T00:19:58.022Z,72.1
2022-08-18T00:23:10.168Z,72.2
2022-08-18T00:26:22.319Z,72.6
2022-08-18T00:29:33.478Z,72.8
2022-08-18T00:32:45.624Z,73.4
2022-08-18T00:35:57.774Z,72.5
2022-08-18T00:39:09.931Z,72.8
2022-08-18T00:42:22.088Z,72.7
2022-08-18T00:45:34.239Z,73.5
2022-08-18T00:48:45.409Z,73.9
2022-08-18T00:51:56.587Z,73.1
2022-08-18T00:55:07.760Z,73.2
2022-08-18T00:58:18.914Z,73.8
2022-08-18T01:01:31.072Z,73.7
2022-08-18T01:04:43.213Z,73.5
2022-08-18T01:07:55.373Z,73.8
2022-08-18T01:11:07.530Z,73.6
2022-08-18T01:14:19.669Z,73.9
2022-08-18T01:17:31.828Z,74.2
2022-08-18T01:20:43.977Z,73.8
2022-08-18T01:23:56.127Z,74
2022-08-18T01:27:08.273Z,74
2022-08-18T01:30:20.415Z,74.3
2022-08-18T01:33:32.575Z,74.2
2022-08-18T01:36:44.715Z,74.5
2022-08-18T01:39:55.884Z,74.3
2022-08-18T01:43:08.043Z,74.3
2022-08-18T01:46:20.190Z,74.3
2022-08-18T01:49:32.339Z,74.2
2022-08-18T01:52:44.484Z,74.5
2022-08-18T01:55:56.640Z,74.5
2022-08-18T01:59:08.782Z,75
2022-08-18T02:02:19.967Z,75
2022-08-18T02:05:31.141Z,75.3
2022-08-18T02:08:43.296Z,75.1
2022-08-18T02:11:55.440Z,74.7
2022-08-18T02:15:07.581Z,75
2022-08-18T02:18:19.742Z,74.5
2022-08-18T02:21:31.878Z,74.3
2022-08-18T02:24:44.033Z,74.2
2022-08-18T02:27:56.179Z,74.2
2022-08-18T02:31:08.332Z,74.4
2022-08-18T02:34:20.499Z,74.6
2022-08-18T02:37:32.640Z,74.8
2022-08-18T02:40:44.795Z,74.8
2022-08-18T02:43:56.936Z,74.8
2022-08-18T02:47:08.157Z,74.9
2022-08-18T02:50:20.300Z,75.2
2022-08-18T02:53:32.450Z,75.4
2022-08-18T02:56:44.617Z,75.7
2022-08-18T02:59:56.752Z,75.8
2022-08-18T03:03:08.912Z,75.8
2022-08-18T03:06:21.066Z,75.8
2022-08-18T03:09:32.241Z,75.5
2022-08-18T03:12:43.403Z,75.3
2022-08-18T03:15:54.581Z,75.8
2022-08-18T03:19:05.738Z,76
2022-08-18T03:22:17.895Z,76.2
2022-08-18T03:25:30.047Z,76.2
2022-08-18T03:28:42.189Z,76
2022-08-18T03:31:54.353Z,76.3
2022-08-18T03:35:06.498Z,75.8
2022-08-18T03:38:18.658Z,76
2022-08-18T03:41:30.799Z,76.3
2022-08-18T03:44:42.942Z,76.5
2022-08-18T03:47:55.105Z,76.5
2022-08-18T03:51:07.248Z,76.9
2022-08-18T03:54:19.404Z,76.9
2022-08-18T03:57:31.561Z,76.7
2022-08-18T04:00:42.709Z,76.8
2022-08-18T04:03:54.873Z,76.9
2022-08-18T04:07:07.014Z,76.6
2022-08-18T04:10:19.157Z,77
2022-08-18T04:16:43.457Z,77.4
2022-08-18T04:19:55.611Z,77.4
2022-08-18T04:23:07.778Z,77.4
2022-08-18T04:26:18.951Z,77.9
2022-08-18T04:29:30.102Z,77.5
2022-08-18T04:32:41.291Z,77.8
2022-08-18T04:35:52.465Z,78.3
2022-08-18T04:39:04.611Z,78.4
2022-08-18T04:42:16.746Z,78
2022-08-18T04:45:28.914Z,78.4
2022-08-18T04:48:41.059Z,78.4
2022-08-18T04:51:53.204Z,78.4
2022-08-18T04:55:05.346Z,78.5
2022-08-18T04:58:17.510Z,78.9
2022-08-18T05:01:29.651Z,79.1
2022-08-18T05:04:41.815Z,79.3
2022-08-18T05:07:53.960Z,79.6
2022-08-18T05:11:06.000Z,79.4
2022-08-18T05:14:18.269Z,79.5
2022-08-18T05:17:29.433Z,79.6
2022-08-18T05:20:41.574Z,79.4
2022-08-18T05:23:53.726Z,79.7
2022-08-18T05:27:05.876Z,80
2022-08-18T05:30:18.033Z,79.7
2022-08-18T05:33:30.172Z,80.1
2022-08-18T05:36:42.337Z,79.6
2022-08-18T05:39:53.503Z,79.8
2022-08-18T05:43:04.666Z,80
2022-08-18T05:46:16.827Z,78.9
2022-08-18T05:49:28.006Z,78.2
2022-08-18T05:52:39.172Z,78.4
2022-08-18T05:55:51.320Z,78.8
2022-08-18T05:59:03.460Z,78.5
2022-08-18T06:02:15.622Z,77.4
2022-08-18T06:05:27.775Z,77.2
2022-08-18T06:08:39.924Z,76
2022-08-18T06:11:52.067Z,76.3
2022-08-18T06:15:04.213Z,75.8
2022-08-18T06:18:16.375Z,76.6
2022-08-18T06:21:28.520Z,74.2
2022-08-18T06:24:40.679Z,74.3
2022-08-18T06:31:04.969Z,76.7
2022-08-18T06:34:16.133Z,77.6
2022-08-18T06:37:28.299Z,76.9
2022-08-18T06:40:40.438Z,77
2022-08-18T06:43:52.578Z,77.5
2022-08-18T06:47:04.743Z,76.4
2022-08-18T06:50:16.886Z,75.8
2022-08-18T06:53:29.038Z,75.9
2022-08-18T06:56:41.196Z,74.6
2022-08-18T06:59:52.378Z,75.3
2022-08-18T07:03:03.530Z,75.2
2022-08-18T07:06:14.721Z,74.6
2022-08-18T07:09:25.894Z,74.2
2022-08-18T07:12:38.045Z,73.2
2022-08-18T07:15:50.180Z,72.3
2022-08-18T07:19:02.334Z,72.5
2022-08-18T07:22:14.494Z,72.9
2022-08-18T07:25:26.646Z,73.2
2022-08-18T07:28:38.796Z,73.8
2022-08-18T07:31:50.941Z,74
2022-08-18T07:35:03.098Z,74.2
2022-08-18T07:38:15.243Z,73.8
2022-08-18T07:41:27.402Z,73.5
2022-08-18T07:44:39.544Z,73.7
2022-08-18T07:47:51.701Z,73.2
2022-08-18T07:51:02.864Z,73
2022-08-18T07:54:15.016Z,74.2
2022-08-18T07:57:27.165Z,74.4
2022-08-18T08:00:39.320Z,73.7
2022-08-18T08:03:51.472Z,74
2022-08-18T08:07:03.637Z,74.1
2022-08-18T08:10:15.775Z,73.6
2022-08-18T08:13:26.952Z,72.8
2022-08-18T08:16:38.133Z,74.1
2022-08-18T08:19:50.274Z,73.8
2022-08-18T08:23:01.468Z,73.8
2022-08-18T08:26:12.631Z,72.2
2022-08-18T08:29:24.774Z,71.6
2022-08-18T08:32:36.935Z,72.5
2022-08-18T08:35:49.087Z,71
2022-08-18T08:39:01.232Z,70.7
2022-08-18T08:42:13.381Z,71
2022-08-18T08:45:25.538Z,70.5
2022-08-18T08:48:37.695Z,70.3
2022-08-18T08:51:49.831Z,69.9
2022-08-18T08:55:01.991Z,71.4
2022-08-18T08:58:14.134Z,72.2
2022-08-18T09:01:26.295Z,71.9
2022-08-18T09:04:38.440Z,72.2
2022-08-18T09:07:49.618Z,71.6
2022-08-18T09:11:01.762Z,69.5
2022-08-18T09:14:13.911Z,69.8
2022-08-18T09:17:26.077Z,69.5
2022-08-18T09:20:38.210Z,69.1
2022-08-18T09:23:50.364Z,69.7
2022-08-18T09:27:02.527Z,69.5
2022-08-18T09:30:13.691Z,69.5
2022-08-18T09:33:24.890Z,67.9
2022-08-18T09:36:37.026Z,68.3
2022-08-18T09:39:49.191Z,68.5
2022-08-18T09:43:00.363Z,68.3
2022-08-18T09:46:11.527Z,68.2
2022-08-18T09:49:23.676Z,68.5
2022-08-18T09:52:35.841Z,68.2
2022-08-18T09:55:47.991Z,68.2
2022-08-18T09:59:00.144Z,69
2022-08-18T10:02:12.300Z,68.3
2022-08-18T10:05:24.449Z,66.7
2022-08-18T10:08:36.596Z,66.4
2022-08-18T10:11:48.737Z,66.5
2022-08-18T10:15:00.894Z,67.2
2022-08-18T10:18:13.049Z,67.2
2022-08-18T10:21:25.206Z,67.3
2022-08-18T10:24:37.353Z,67.9
2022-08-18T10:27:48.533Z,67.5
2022-08-18T10:31:00.673Z,67
2022-08-18T10:34:12.831Z,65.3
2022-08-18T10:37:24.983Z,65.3
2022-08-18T10:40:37.121Z,66
2022-08-18T10:43:49.289Z,65
2022-08-18T10:47:01.451Z,65.3
2022-08-18T10:50:12.636Z,64.7
2022-08-18T10:53:23.792Z,64.7
2022-08-18T10:56:35.938Z,63.2
2022-08-18T10:59:48.108Z,61.9
2022-08-18T11:03:00.257Z,62
2022-08-18T11:06:12.402Z,63.7
2022-08-18T11:09:24.559Z,63.4
2022-08-18T11:12:36.704Z,62.3
2022-08-18T11:15:48.852Z,61.8
2022-08-18T11:19:01.005Z,61.9
2022-08-18T11:22:13.159Z,62.8
2022-08-18T11:25:25.311Z,62.4
2022-08-18T11:28:37.455Z,61.6
2022-08-18T11:31:49.610Z,61.2
2022-08-18T11:35:00.785Z,61.7
2022-08-18T11:38:12.934Z,59.5
2022-08-18T11:41:25.073Z,60.5
2022-08-18T11:44:37.236Z,59.6
2022-08-18T11:47:49.388Z,59.3
2022-08-18T11:51:01.544Z,60.8
2022-08-18T11:54:13.687Z,61.2
2022-08-18T11:57:24.859Z,59.4
2022-08-18T12:00:36.038Z,58.7
2022-08-18T12:03:48.178Z,59.4
2022-08-18T12:07:00.325Z,56.6
2022-08-18T12:10:12.479Z,57
2022-08-18T12:13:24.632Z,55.5
2022-08-18T12:16:36.784Z,55.8
2022-08-18T12:19:48.945Z,57.1
2022-08-18T12:23:01.097Z,57.5
2022-08-18T12:26:13.247Z,58.1
2022-08-18T12:29:25.409Z,58.9
2022-08-18T12:32:37.557Z,56.4
2022-08-18T12:35:49.697Z,55.1
2022-08-18T12:39:01.864Z,55.8
2022-08-18T12:42:13.032Z,57.8
2022-08-18T12:45:25.169Z,56.9
2022-08-18T12:48:37.323Z,54.8
2022-08-18T12:51:49.480Z,55.1
2022-08-18T12:55:01.639Z,51.9
2022-08-18T12:58:13.789Z,54.5
2022-08-18T13:01:25.940Z,54.7
2022-08-18T13:04:37.119Z,53.9
2022-08-18T13:07:48.290Z,53.6
2022-08-18T13:10:59.453Z,53.1
2022-08-18T13:14:10.623Z,51.9
2022-08-18T13:17:21.818Z,51
2022-08-18T13:20:32.981Z,53.4
2022-08-18T13:23:45.135Z,54.7
2022-08-18T13:26:57.273Z,54.4
2022-08-18T13:30:08.465Z,53.4
2022-08-18T13:33:19.625Z,52.2
2022-08-18T13:36:31.774Z,52.7
2022-08-18T13:39:43.921Z,52.9
2022-08-18T13:42:56.079Z,50.3
2022-08-18T13:46:08.226Z,51.2
2022-08-18T13:49:20.388Z,52.4
2022-08-18T13:52:32.546Z,53.1
2022-08-18T13:55:44.692Z,53.9
2022-08-18T13:58:56.846Z,54.6
2022-08-18T14:02:09.005Z,52.2
2022-08-18T14:05:21.142Z,51.5
2022-08-18T14:08:33.294Z,52.1
2022-08-18T14:11:45.445Z,50.9
2022-08-18T14:14:56.612Z,50.5
2022-08-18T14:18:08.766Z,50.8
2022-08-18T14:21:20.923Z,50.3
2022-08-18T14:24:33.079Z,50.7
2022-08-18T14:27:45.236Z,50.5
2022-08-18T14:30:57.378Z,48.9
2022-08-18T14:34:09.537Z,49.3
2022-08-18T14:37:20.723Z,48.2
2022-08-18T14:40:31.885Z,49.3
2022-08-18T14:43:44.030Z,48.2
2022-08-18T14:46:55.208Z,47.6
2022-08-18T14:50:06.386Z,48.1
2022-08-18T14:53:18.530Z,46.3
2022-08-18T14:56:30.698Z,46.6
2022-08-18T14:59:42.852Z,47
2022-08-18T15:02:54.985Z,47
2022-08-18T15:06:07.146Z,46.9
2022-08-18T15:09:19.294Z,48.3
2022-08-18T15:12:31.458Z,48.6
2022-08-18T15:15:43.607Z,49.1
2022-08-18T15:18:55.767Z,49.6
2022-08-18T15:22:07.909Z,49.7
2022-08-18T15:25:20.068Z,49.7
2022-08-18T15:28:32.218Z,49.8
2022-08-18T15:31:43.378Z,50.3
2022-08-18T15:34:55.531Z,50.1
2022-08-18T15:38:07.685Z,51.4
2022-08-18T15:41:19.849Z,50.8
2022-08-18T15:44:32.000Z,50.9
2022-08-18T15:47:44.151Z,50.4
2022-08-18T15:50:56.299Z,50.1
2022-08-18T15:54:07.479Z,49.9
2022-08-18T15:57:18.653Z,51.6
2022-08-18T16:00:30.800Z,51.5
2022-08-18T16:03:42.966Z,51.2
2022-08-18T16:06:54.130Z,50.9
2022-08-18T16:10:05.305Z,51.9
2022-08-18T16:13:17.447Z,52.7
2022-08-18T16:16:29.617Z,52.7
2022-08-18T16:19:41.765Z,53.1
2022-08-18T16:22:53.911Z,53
2022-08-18T16:26:06.066Z,52.9
2022-08-18T16:29:18.220Z,53.2
2022-08-18T16:32:30.370Z,53.5
2022-08-18T16:35:42.501Z,53.9
2022-08-18T16:38:54.679Z,54.1
2022-08-18T16:42:06.804Z,54.2
2022-08-18T16:45:18.957Z,54.7
2022-08-18T16:48:31.107Z,55
2022-08-18T16:51:42.288Z,58.3
2022-08-18T16:54:54.437Z,55.5
2022-08-18T16:58:06.584Z,56.3
2022-08-18T17:01:18.736Z,55.2
2022-08-18T17:04:30.888Z,55
2022-08-18T17:07:43.031Z,55.5
2022-08-18T17:10:55.180Z,55.8
2022-08-18T17:14:06.359Z,56.6
2022-08-18T17:17:17.539Z,56.9
2022-08-18T17:20:28.698Z,57.5
2022-08-18T17:23:39.882Z,57.5
2022-08-18T17:26:51.056Z,57.7
2022-08-18T17:30:02.224Z,58.2
2022-08-18T17:33:14.362Z,58.6
2022-08-18T17:36:26.507Z,59.2
2022-08-18T17:39:38.671Z,59.7
2022-08-18T17:42:50.825Z,60.3
2022-08-18T17:46:02.972Z,61.2
2022-08-18T17:49:15.128Z,61.7
2022-08-18T17:52:27.275Z,62.4
2022-08-18T17:55:39.424Z,62.8
2022-08-18T17:58:51.567Z,62.9
2022-08-18T18:02:03.721Z,63.1
2022-08-18T18:05:15.875Z,63.9
2022-08-18T18:08:28.027Z,63.9
2022-08-18T18:11:39.191Z,63.9
2022-08-18T18:14:51.345Z,64.5
2022-08-18T18:18:03.489Z,64.2
2022-08-18T18:21:15.650Z,64.6
2022-08-18T18:24:27.794Z,64.4
2022-08-18T18:27:39.950Z,64.8
2022-08-18T18:30:52.100Z,65.2
2022-08-18T18:34:03.268Z,64.8
2022-08-18T18:37:14.447Z,64.8
2022-08-18T18:40:26.591Z,64.9
2022-08-18T18:43:38.731Z,64.6
2022-08-18T18:46:50.887Z,64.7
2022-08-18T18:50:03.046Z,64.7
2022-08-18T18:53:15.182Z,65
2022-08-18T18:56:27.347Z,64.5
2022-08-18T18:59:38.514Z,64.5
2022-08-18T19:02:50.668Z,64.4
2022-08-18T19:06:02.818Z,64.2
2022-08-18T19:09:14.967Z,64.5
2022-08-18T19:12:27.120Z,65.4
2022-08-18T19:15:39.275Z,65.3
2022-08-18T19:18:51.427Z,65.4
2022-08-18T19:22:03.560Z,65.3
2022-08-18T19:25:15.726Z,65.4
2022-08-18T19:28:27.875Z,65.6
2022-08-18T19:31:40.018Z,65.8
2022-08-18T19:34:52.168Z,66.1
2022-08-18T19:38:04.321Z,66.4
2022-08-18T19:41:15.501Z,66.6
2022-08-18T19:44:26.673Z,66.8
2022-08-18T19:47:37.847Z,67
2022-08-18T19:50:49.019Z,67.2
2022-08-18T19:54:01.164Z,67.2
2022-08-18T19:57:13.321Z,67.4
2022-08-18T20:00:25.468Z,67.3
2022-08-18T20:03:37.604Z,67.4
2022-08-18T20:06:49.764Z,67.5
2022-08-18T20:10:01.917Z,67.8
2022-08-18T20:13:14.054Z,67.4
2022-08-18T20:16:26.219Z,67.5
2022-08-18T20:19:38.368Z,67.7
2022-08-18T20:22:50.518Z,67.8
2022-08-18T20:26:02.667Z,68
2022-08-18T20:29:14.806Z,71.7
2022-08-18T20:32:25.979Z,74.7
2022-08-18T20:35:38.128Z,76.2
2022-08-18T20:38:50.283Z,77.9
2022-08-18T20:42:02.434Z,78.7
2022-08-18T20:45:14.573Z,79.4
2022-08-18T20:48:26.726Z,79.1
2022-08-18T20:51:38.891Z,79.1
2022-08-18T20:54:50.058Z,79
2022-08-18T20:58:01.214Z,80.2
2022-08-18T21:01:12.394Z,80.3
2022-08-18T21:04:23.572Z,80.7
2022-08-18T21:10:47.857Z,80.6
2022-08-18T21:14:00.026Z,80.5
2022-08-18T21:17:12.161Z,80.3
2022-08-18T21:20:24.325Z,80.1
2022-08-18T21:23:36.471Z,80.3
2022-08-18T21:26:48.624Z,79.7
2022-08-18T21:30:00.770Z,80.2
2022-08-18T21:33:12.931Z,81.7
2022-08-18T21:36:25.078Z,82.6
2022-08-18T21:39:37.220Z,83.1
2022-08-18T21:42:49.372Z,83.1
2022-08-18T21:46:00.541Z,84.4
2022-08-18T21:49:12.701Z,84.9
2022-08-18T21:52:24.854Z,85.3
2022-08-18T21:55:37.004Z,85.5
2022-08-18T21:58:49.155Z,85.5
2022-08-18T22:02:01.304Z,85.4
2022-08-18T22:05:13.453Z,85.7
2022-08-18T22:08:25.603Z,86.3
2022-08-18T22:11:36.768Z,86.5
2022-08-18T22:14:47.952Z,86.3
2022-08-18T22:17:59.123Z,85.7
2022-08-18T22:21:10.295Z,85.8
2022-08-18T22:24:21.465Z,86
2022-08-18T22:27:32.635Z,85.2
2022-08-18T22:30:44.789Z,85.3
2022-08-18T22:33:56.931Z,84.8
2022-08-18T22:37:09.083Z,85.3
2022-08-18T22:40:21.247Z,85.6
2022-08-18T22:43:33.421Z,85.9
2022-08-18T22:46:45.576Z,86.2
2022-08-18T22:49:57.720Z,86.5
2022-08-18T22:53:09.873Z,86.1
2022-08-18T22:56:22.020Z,86.5
2022-08-18T22:59:34.185Z,87
2022-08-18T23:02:46.332Z,87
2022-08-18T23:05:58.484Z,86.8
2022-08-18T23:09:09.639Z,86.8
2022-08-18T23:12:21.786Z,86.4
2022-08-18T23:15:33.939Z,86.2
2022-08-18T23:18:46.094Z,86.8
2022-08-18T23:21:58.251Z,86.8
2022-08-18T23:25:10.403Z,87.1
2022-08-18T23:28:22.535Z,86.8
2022-08-18T23:31:33.723Z,86.8
2022-08-18T23:34:44.880Z,86.9
2022-08-18T23:37:57.039Z,87.3
2022-08-18T23:41:09.193Z,87.3
2022-08-18T23:44:21.340Z,87.8
2022-08-18T23:47:33.481Z,87.9
2022-08-18T23:50:45.636Z,87.1
2022-08-18T23:53:57.786Z,87.1
2022-08-18T23:57:09.941Z,87.2
